sensor_id;sensor_type;location;lat;lon;timestamp;temperature;humidity
10149;DHT22;5115;50.920;6.376;2022-08-21T00:00:48;17.60;99.90
10149;DHT22;5115;50.920;6.376;2022-08-21T00:03:14;17.60;99.90
10149;DHT22;5115;50.920;6.376;2022-08-21T00:05:46;17.00;99.90
10149;DHT22;5115;50.920;6.376;2022-08-21T00:08:12;17.50;99.90
10149;DHT22;5115;50.920;6.376;2022-08-21T00:10:39;17.50;99.90
10149;DHT22;5115;50.920;6.376;2022-08-21T00:13:05;17.50;99.90
10149;DHT22;5115;50.920;6.376;2022-08-21T00:15:33;17.50;99.90
10149;DHT22;5115;50.920;6.376;2022-08-21T00:17:59;17.40;99.90
10149;DHT22;5115;50.920;6.376;2022-08-21T00:20:25;17.40;99.90
10149;DHT22;5115;50.920;6.376;2022-08-21T00:22:50;17.50;99.90
10149;DHT22;5115;50.920;6.376;2022-08-21T00:25:17;17.50;99.90
10149;DHT22;5115;50.920;6.376;2022-08-21T00:27:43;17.60;99.90
10149;DHT22;5115;50.920;6.376;2022-08-21T00:30:10;17.50;99.90
10149;DHT22;5115;50.920;6.376;2022-08-21T00:32:38;17.40;99.90
10149;DHT22;5115;50.920;6.376;2022-08-21T00:35:10;17.20;99.90
10149;DHT22;5115;50.920;6.376;2022-08-21T00:37:37;17.20;99.90
10149;DHT22;5115;50.920;6.376;2022-08-21T00:40:03;17.20;99.90
10149;DHT22;5115;50.920;6.376;2022-08-21T00:42:29;17.20;99.90
10149;DHT22;5115;50.920;6.376;2022-08-21T00:44:55;17.10;99.90
10149;DHT22;5115;50.920;6.376;2022-08-21T00:47:21;17.10;99.90
10149;DHT22;5115;50.920;6.376;2022-08-21T00:49:47;17.00;99.90
10149;DHT22;5115;50.920;6.376;2022-08-21T00:52:18;16.80;99.90
10149;DHT22;5115;50.920;6.376;2022-08-21T00:54:45;16.70;99.90
10149;DHT22;5115;50.920;6.376;2022-08-21T00:57:17;16.60;99.90
10149;DHT22;5115;50.920;6.376;2022-08-21T00:59:46;16.70;99.90
10149;DHT22;5115;50.920;6.376;2022-08-21T01:02:13;16.70;99.90
10149;DHT22;5115;50.920;6.376;2022-08-21T01:04:38;16.80;99.90
10149;DHT22;5115;50.920;6.376;2022-08-21T01:07:04;16.90;99.90
10149;DHT22;5115;50.920;6.376;2022-08-21T01:09:30;16.90;99.90
10149;DHT22;5115;50.920;6.376;2022-08-21T01:11:56;17.00;99.90
10149;DHT22;5115;50.920;6.376;2022-08-21T01:14:21;16.90;99.90
10149;DHT22;5115;50.920;6.376;2022-08-21T01:16:50;17.00;99.90
10149;DHT22;5115;50.920;6.376;2022-08-21T01:19:18;17.00;99.90
10149;DHT22;5115;50.920;6.376;2022-08-21T01:21:44;17.00;99.90
10149;DHT22;5115;50.920;6.376;2022-08-21T01:24:10;17.00;99.90
10149;DHT22;5115;50.920;6.376;2022-08-21T01:26:36;16.90;99.90
10149;DHT22;5115;50.920;6.376;2022-08-21T01:29:20;16.90;99.90
10149;DHT22;5115;50.920;6.376;2022-08-21T01:31:48;16.90;99.90
10149;DHT22;5115;50.920;6.376;2022-08-21T01:34:14;16.80;99.90
10149;DHT22;5115;50.920;6.376;2022-08-21T01:36:41;17.40;99.90
10149;DHT22;5115;50.920;6.376;2022-08-21T01:39:07;16.70;99.90
10149;DHT22;5115;50.920;6.376;2022-08-21T01:41:33;16.50;99.90
10149;DHT22;5115;50.920;6.376;2022-08-21T01:43:58;16.40;99.90
10149;DHT22;5115;50.920;6.376;2022-08-21T01:46:24;16.40;99.90
10149;DHT22;5115;50.920;6.376;2022-08-21T01:48:49;16.40;99.90
10149;DHT22;5115;50.920;6.376;2022-08-21T01:51:15;16.80;99.90
10149;DHT22;5115;50.920;6.376;2022-08-21T01:53:41;16.30;99.90
10149;DHT22;5115;50.920;6.376;2022-08-21T01:56:09;16.20;99.90
10149;DHT22;5115;50.920;6.376;2022-08-21T01:58:35;16.00;99.90
10149;DHT22;5115;50.920;6.376;2022-08-21T02:01:02;16.10;99.90
10149;DHT22;5115;50.920;6.376;2022-08-21T02:03:31;16.20;99.90
10149;DHT22;5115;50.920;6.376;2022-08-21T02:05:57;16.10;99.90
10149;DHT22;5115;50.920;6.376;2022-08-21T02:08:23;16.10;99.90
10149;DHT22;5115;50.920;6.376;2022-08-21T02:10:50;16.20;99.90
10149;DHT22;5115;50.920;6.376;2022-08-21T02:13:17;16.30;99.90
10149;DHT22;5115;50.920;6.376;2022-08-21T02:15:42;16.30;99.90
10149;DHT22;5115;50.920;6.376;2022-08-21T02:18:09;16.20;99.90
10149;DHT22;5115;50.920;6.376;2022-08-21T02:20:38;16.10;99.90
10149;DHT22;5115;50.920;6.376;2022-08-21T02:23:05;16.00;99.90
10149;DHT22;5115;50.920;6.376;2022-08-21T02:25:31;16.00;99.90
10149;DHT22;5115;50.920;6.376;2022-08-21T02:27:59;16.00;99.90
10149;DHT22;5115;50.920;6.376;2022-08-21T02:30:28;15.90;99.90
10149;DHT22;5115;50.920;6.376;2022-08-21T02:32:57;15.90;99.90
10149;DHT22;5115;50.920;6.376;2022-08-21T02:35:23;15.90;99.90
10149;DHT22;5115;50.920;6.376;2022-08-21T02:37:54;15.90;99.90
10149;DHT22;5115;50.920;6.376;2022-08-21T02:40:23;15.90;99.90
10149;DHT22;5115;50.920;6.376;2022-08-21T02:42:50;15.90;99.90
10149;DHT22;5115;50.920;6.376;2022-08-21T02:45:16;16.90;99.90
10149;DHT22;5115;50.920;6.376;2022-08-21T02:47:56;15.90;99.90
10149;DHT22;5115;50.920;6.376;2022-08-21T02:50:36;15.90;99.90
10149;DHT22;5115;50.920;6.376;2022-08-21T02:53:03;16.00;99.90
10149;DHT22;5115;50.920;6.376;2022-08-21T02:55:31;16.00;99.90
10149;DHT22;5115;50.920;6.376;2022-08-21T02:57:57;16.10;99.90
10149;DHT22;5115;50.920;6.376;2022-08-21T03:00:25;16.10;99.90
10149;DHT22;5115;50.920;6.376;2022-08-21T03:02:51;15.90;99.90
10149;DHT22;5115;50.920;6.376;2022-08-21T03:05:17;16.00;99.90
10149;DHT22;5115;50.920;6.376;2022-08-21T03:07:44;16.10;99.90
10149;DHT22;5115;50.920;6.376;2022-08-21T03:10:10;16.10;99.90
10149;DHT22;5115;50.920;6.376;2022-08-21T03:12:36;16.10;99.90
10149;DHT22;5115;50.920;6.376;2022-08-21T03:15:10;16.10;99.90
10149;DHT22;5115;50.920;6.376;2022-08-21T03:17:37;16.20;99.90
10149;DHT22;5115;50.920;6.376;2022-08-21T03:20:04;16.30;99.90
10149;DHT22;5115;50.920;6.376;2022-08-21T03:22:30;16.30;99.90
10149;DHT22;5115;50.920;6.376;2022-08-21T03:24:57;16.30;99.90
10149;DHT22;5115;50.920;6.376;2022-08-21T03:27:23;16.30;99.90
10149;DHT22;5115;50.920;6.376;2022-08-21T03:29:49;16.00;99.90
10149;DHT22;5115;50.920;6.376;2022-08-21T03:32:18;16.00;99.90
10149;DHT22;5115;50.920;6.376;2022-08-21T03:34:45;16.00;99.90
10149;DHT22;5115;50.920;6.376;2022-08-21T03:37:11;15.90;99.90
10149;DHT22;5115;50.920;6.376;2022-08-21T03:39:36;15.70;99.90
10149;DHT22;5115;50.920;6.376;2022-08-21T03:42:02;15.50;99.90
10149;DHT22;5115;50.920;6.376;2022-08-21T03:44:28;15.40;99.90
10149;DHT22;5115;50.920;6.376;2022-08-21T03:46:55;15.40;99.90
10149;DHT22;5115;50.920;6.376;2022-08-21T03:49:20;15.40;99.90
10149;DHT22;5115;50.920;6.376;2022-08-21T03:51:46;15.40;99.90
10149;DHT22;5115;50.920;6.376;2022-08-21T03:54:12;15.40;99.90
10149;DHT22;5115;50.920;6.376;2022-08-21T03:56:37;15.40;99.90
10149;DHT22;5115;50.920;6.376;2022-08-21T03:59:04;15.50;99.90
10149;DHT22;5115;50.920;6.376;2022-08-21T04:01:30;15.60;99.90
10149;DHT22;5115;50.920;6.376;2022-08-21T04:03:56;15.70;99.90
10149;DHT22;5115;50.920;6.376;2022-08-21T04:06:21;15.70;99.90
10149;DHT22;5115;50.920;6.376;2022-08-21T04:08:47;15.70;99.90
10149;DHT22;5115;50.920;6.376;2022-08-21T04:11:13;15.70;99.90
10149;DHT22;5115;50.920;6.376;2022-08-21T04:13:40;15.60;99.90
10149;DHT22;5115;50.920;6.376;2022-08-21T04:16:06;15.60;99.90
10149;DHT22;5115;50.920;6.376;2022-08-21T04:18:32;15.60;99.90
10149;DHT22;5115;50.920;6.376;2022-08-21T04:20:58;15.60;99.90
10149;DHT22;5115;50.920;6.376;2022-08-21T04:23:24;15.60;99.90
10149;DHT22;5115;50.920;6.376;2022-08-21T04:25:51;15.60;99.90
10149;DHT22;5115;50.920;6.376;2022-08-21T04:28:17;15.40;99.90
10149;DHT22;5115;50.920;6.376;2022-08-21T04:30:42;15.30;99.90
10149;DHT22;5115;50.920;6.376;2022-08-21T04:33:08;15.30;99.90
10149;DHT22;5115;50.920;6.376;2022-08-21T04:35:34;15.20;99.90
10149;DHT22;5115;50.920;6.376;2022-08-21T04:37:59;15.20;99.90
10149;DHT22;5115;50.920;6.376;2022-08-21T04:40:26;15.20;99.90
10149;DHT22;5115;50.920;6.376;2022-08-21T04:42:56;15.20;99.90
10149;DHT22;5115;50.920;6.376;2022-08-21T04:45:25;15.20;99.90
10149;DHT22;5115;50.920;6.376;2022-08-21T04:47:52;15.40;99.90
10149;DHT22;5115;50.920;6.376;2022-08-21T04:50:19;15.30;99.90
10149;DHT22;5115;50.920;6.376;2022-08-21T04:52:45;15.30;99.90
10149;DHT22;5115;50.920;6.376;2022-08-21T04:55:12;15.30;99.90
10149;DHT22;5115;50.920;6.376;2022-08-21T04:57:38;15.30;99.90
10149;DHT22;5115;50.920;6.376;2022-08-21T05:00:05;15.20;99.90
10149;DHT22;5115;50.920;6.376;2022-08-21T05:02:31;15.10;99.90
10149;DHT22;5115;50.920;6.376;2022-08-21T05:04:59;15.30;99.90
10149;DHT22;5115;50.920;6.376;2022-08-21T05:07:27;15.30;99.90
10149;DHT22;5115;50.920;6.376;2022-08-21T05:09:54;15.30;99.90
10149;DHT22;5115;50.920;6.376;2022-08-21T05:12:19;15.40;99.90
10149;DHT22;5115;50.920;6.376;2022-08-21T05:14:45;15.40;99.90
10149;DHT22;5115;50.920;6.376;2022-08-21T05:17:12;15.40;99.90
10149;DHT22;5115;50.920;6.376;2022-08-21T05:19:38;15.50;99.90
10149;DHT22;5115;50.920;6.376;2022-08-21T05:22:04;15.60;99.90
10149;DHT22;5115;50.920;6.376;2022-08-21T05:24:29;15.70;99.90
10149;DHT22;5115;50.920;6.376;2022-08-21T05:26:55;16.10;99.90
10149;DHT22;5115;50.920;6.376;2022-08-21T05:29:20;16.00;99.90
10149;DHT22;5115;50.920;6.376;2022-08-21T05:31:47;16.10;99.90
10149;DHT22;5115;50.920;6.376;2022-08-21T05:34:14;16.20;99.90
10149;DHT22;5115;50.920;6.376;2022-08-21T05:36:40;16.40;99.90
10149;DHT22;5115;50.920;6.376;2022-08-21T05:39:06;16.50;99.90
10149;DHT22;5115;50.920;6.376;2022-08-21T05:41:31;16.70;99.90
10149;DHT22;5115;50.920;6.376;2022-08-21T05:43:57;16.90;99.90
10149;DHT22;5115;50.920;6.376;2022-08-21T05:46:22;17.10;99.90
10149;DHT22;5115;50.920;6.376;2022-08-21T05:48:48;17.30;99.90
10149;DHT22;5115;50.920;6.376;2022-08-21T05:51:14;17.70;99.90
10149;DHT22;5115;50.920;6.376;2022-08-21T05:53:41;18.50;99.90
10149;DHT22;5115;50.920;6.376;2022-08-21T05:56:08;18.30;99.90
10149;DHT22;5115;50.920;6.376;2022-08-21T05:58:34;18.60;99.90
10149;DHT22;5115;50.920;6.376;2022-08-21T06:01:01;18.70;99.90
10149;DHT22;5115;50.920;6.376;2022-08-21T06:03:31;19.00;99.90
10149;DHT22;5115;50.920;6.376;2022-08-21T06:05:57;19.30;99.90
10149;DHT22;5115;50.920;6.376;2022-08-21T06:08:23;20.00;99.90
10149;DHT22;5115;50.920;6.376;2022-08-21T06:10:51;20.50;99.90
10149;DHT22;5115;50.920;6.376;2022-08-21T06:13:19;20.20;99.90
10149;DHT22;5115;50.920;6.376;2022-08-21T06:15:44;20.20;99.90
10149;DHT22;5115;50.920;6.376;2022-08-21T06:18:10;20.40;99.90
10149;DHT22;5115;50.920;6.376;2022-08-21T06:20:36;20.80;99.90
10149;DHT22;5115;50.920;6.376;2022-08-21T06:23:02;21.00;99.90
10149;DHT22;5115;50.920;6.376;2022-08-21T06:25:28;21.30;99.90
10149;DHT22;5115;50.920;6.376;2022-08-21T06:28:01;21.50;99.90
10149;DHT22;5115;50.920;6.376;2022-08-21T06:30:27;21.90;99.90
10149;DHT22;5115;50.920;6.376;2022-08-21T06:32:52;22.30;99.90
10149;DHT22;5115;50.920;6.376;2022-08-21T06:35:18;22.60;99.90
10149;DHT22;5115;50.920;6.376;2022-08-21T06:37:43;22.30;99.90
10149;DHT22;5115;50.920;6.376;2022-08-21T06:40:09;21.90;99.90
10149;DHT22;5115;50.920;6.376;2022-08-21T06:42:35;22.00;99.90
10149;DHT22;5115;50.920;6.376;2022-08-21T06:45:00;22.60;99.90
10149;DHT22;5115;50.920;6.376;2022-08-21T06:47:26;22.90;99.90
10149;DHT22;5115;50.920;6.376;2022-08-21T06:49:51;23.40;99.90
10149;DHT22;5115;50.920;6.376;2022-08-21T06:52:17;23.60;99.90
10149;DHT22;5115;50.920;6.376;2022-08-21T06:54:42;23.90;99.90
10149;DHT22;5115;50.920;6.376;2022-08-21T06:57:08;24.30;99.90
10149;DHT22;5115;50.920;6.376;2022-08-21T06:59:34;24.70;99.90
10149;DHT22;5115;50.920;6.376;2022-08-21T07:01:59;24.50;99.90
10149;DHT22;5115;50.920;6.376;2022-08-21T07:04:25;24.70;99.90
10149;DHT22;5115;50.920;6.376;2022-08-21T07:06:51;25.00;99.90
10149;DHT22;5115;50.920;6.376;2022-08-21T07:09:16;25.20;99.90
10149;DHT22;5115;50.920;6.376;2022-08-21T07:11:50;25.30;99.90
10149;DHT22;5115;50.920;6.376;2022-08-21T07:14:16;25.60;99.90
10149;DHT22;5115;50.920;6.376;2022-08-21T07:16:42;25.70;99.90
10149;DHT22;5115;50.920;6.376;2022-08-21T07:19:07;25.60;99.90
10149;DHT22;5115;50.920;6.376;2022-08-21T07:21:33;25.40;99.90
10149;DHT22;5115;50.920;6.376;2022-08-21T07:23:58;25.50;99.90
10149;DHT22;5115;50.920;6.376;2022-08-21T07:26:24;25.60;99.90
10149;DHT22;5115;50.920;6.376;2022-08-21T07:28:51;25.90;99.90
10149;DHT22;5115;50.920;6.376;2022-08-21T07:31:24;26.10;99.90
10149;DHT22;5115;50.920;6.376;2022-08-21T07:33:50;26.40;99.90
10149;DHT22;5115;50.920;6.376;2022-08-21T07:36:16;26.90;99.90
10149;DHT22;5115;50.920;6.376;2022-08-21T07:38:42;26.80;99.90
10149;DHT22;5115;50.920;6.376;2022-08-21T07:41:20;27.50;99.90
10149;DHT22;5115;50.920;6.376;2022-08-21T07:43:47;27.70;99.90
10149;DHT22;5115;50.920;6.376;2022-08-21T07:46:13;27.50;99.90
10149;DHT22;5115;50.920;6.376;2022-08-21T07:48:39;27.70;99.90
10149;DHT22;5115;50.920;6.376;2022-08-21T07:51:11;27.50;99.90
10149;DHT22;5115;50.920;6.376;2022-08-21T07:53:37;27.50;99.90
10149;DHT22;5115;50.920;6.376;2022-08-21T07:56:05;28.20;99.90
10149;DHT22;5115;50.920;6.376;2022-08-21T07:58:31;28.80;99.90
10149;DHT22;5115;50.920;6.376;2022-08-21T08:00:58;29.00;99.90
10149;DHT22;5115;50.920;6.376;2022-08-21T08:03:23;28.90;99.90
10149;DHT22;5115;50.920;6.376;2022-08-21T08:05:49;29.50;99.90
10149;DHT22;5115;50.920;6.376;2022-08-21T08:08:15;29.80;99.90
10149;DHT22;5115;50.920;6.376;2022-08-21T08:10:41;29.80;99.90
10149;DHT22;5115;50.920;6.376;2022-08-21T08:13:06;30.40;99.90
10149;DHT22;5115;50.920;6.376;2022-08-21T08:15:32;30.70;99.90
10149;DHT22;5115;50.920;6.376;2022-08-21T08:17:58;31.30;98.30
10149;DHT22;5115;50.920;6.376;2022-08-21T08:20:24;31.20;98.70
10149;DHT22;5115;50.920;6.376;2022-08-21T08:22:52;31.30;97.70
10149;DHT22;5115;50.920;6.376;2022-08-21T08:25:19;31.20;97.70
10149;DHT22;5115;50.920;6.376;2022-08-21T08:27:44;30.60;97.60
10149;DHT22;5115;50.920;6.376;2022-08-21T08:30:12;30.80;98.50
10149;DHT22;5115;50.920;6.376;2022-08-21T08:32:38;31.00;97.90
10149;DHT22;5115;50.920;6.376;2022-08-21T08:35:06;31.20;96.80
10149;DHT22;5115;50.920;6.376;2022-08-21T08:37:32;31.60;96.70
10149;DHT22;5115;50.920;6.376;2022-08-21T08:39:58;31.10;97.50
10149;DHT22;5115;50.920;6.376;2022-08-21T08:42:35;30.20;97.30
10149;DHT22;5115;50.920;6.376;2022-08-21T08:45:21;29.80;98.20
10149;DHT22;5115;50.920;6.376;2022-08-21T08:48:10;30.20;98.30
10149;DHT22;5115;50.920;6.376;2022-08-21T08:50:53;30.10;98.50
10149;DHT22;5115;50.920;6.376;2022-08-21T08:53:28;30.10;98.50
10149;DHT22;5115;50.920;6.376;2022-08-21T08:55:55;29.80;98.90
10149;DHT22;5115;50.920;6.376;2022-08-21T08:58:36;29.90;98.60
10149;DHT22;5115;50.920;6.376;2022-08-21T09:01:11;29.90;98.60
10149;DHT22;5115;50.920;6.376;2022-08-21T09:03:39;29.30;98.70
10149;DHT22;5115;50.920;6.376;2022-08-21T09:11:44;29.30;99.90
10149;DHT22;5115;50.920;6.376;2022-08-21T09:14:24;29.50;99.70
10149;DHT22;5115;50.920;6.376;2022-08-21T09:17:04;29.70;99.70
10149;DHT22;5115;50.920;6.376;2022-08-21T09:19:45;28.90;99.90
10149;DHT22;5115;50.920;6.376;2022-08-21T09:22:29;29.20;99.90
10149;DHT22;5115;50.920;6.376;2022-08-21T09:27:33;29.50;99.70
10149;DHT22;5115;50.920;6.376;2022-08-21T09:29:59;29.60;99.80
10149;DHT22;5115;50.920;6.376;2022-08-21T09:32:29;29.10;99.80
10149;DHT22;5115;50.920;6.376;2022-08-21T09:34:59;28.90;99.90
10149;DHT22;5115;50.920;6.376;2022-08-21T09:37:27;29.00;99.90
10149;DHT22;5115;50.920;6.376;2022-08-21T09:39:54;29.20;99.90
10149;DHT22;5115;50.920;6.376;2022-08-21T09:42:28;29.20;99.90
10149;DHT22;5115;50.920;6.376;2022-08-21T09:47:35;29.60;99.90
10149;DHT22;5115;50.920;6.376;2022-08-21T09:50:42;29.50;99.90
10149;DHT22;5115;50.920;6.376;2022-08-21T09:53:00;29.70;99.90
10149;DHT22;5115;50.920;6.376;2022-08-21T09:55:33;29.40;99.90
10149;DHT22;5115;50.920;6.376;2022-08-21T09:58:19;29.10;99.90
10149;DHT22;5115;50.920;6.376;2022-08-21T10:00:45;29.10;99.90
10149;DHT22;5115;50.920;6.376;2022-08-21T10:03:21;29.00;99.90
10149;DHT22;5115;50.920;6.376;2022-08-21T10:05:56;28.90;99.90
10149;DHT22;5115;50.920;6.376;2022-08-21T10:08:25;28.80;99.90
10149;DHT22;5115;50.920;6.376;2022-08-21T10:10:55;28.70;99.90
10149;DHT22;5115;50.920;6.376;2022-08-21T10:13:37;28.70;99.90
10149;DHT22;5115;50.920;6.376;2022-08-21T10:18:50;29.10;99.90
10149;DHT22;5115;50.920;6.376;2022-08-21T10:21:27;29.00;99.90
10149;DHT22;5115;50.920;6.376;2022-08-21T10:24:08;28.70;99.90
10149;DHT22;5115;50.920;6.376;2022-08-21T10:26:41;29.00;99.90
10149;DHT22;5115;50.920;6.376;2022-08-21T10:34:45;29.30;99.90
10149;DHT22;5115;50.920;6.376;2022-08-21T10:37:35;29.60;99.90
10149;DHT22;5115;50.920;6.376;2022-08-21T10:43:02;29.40;99.90
10149;DHT22;5115;50.920;6.376;2022-08-21T10:48:28;29.90;99.90
10149;DHT22;5115;50.920;6.376;2022-08-21T10:54:12;29.70;99.90
10149;DHT22;5115;50.920;6.376;2022-08-21T10:56:41;30.00;99.90
10149;DHT22;5115;50.920;6.376;2022-08-21T11:06:44;30.00;99.80
10149;DHT22;5115;50.920;6.376;2022-08-21T11:09:15;29.90;99.90
10149;DHT22;5115;50.920;6.376;2022-08-21T11:11:52;30.30;99.70
10149;DHT22;5115;50.920;6.376;2022-08-21T11:14:54;29.80;99.10
10149;DHT22;5115;50.920;6.376;2022-08-21T11:17:28;29.80;99.90
10149;DHT22;5115;50.920;6.376;2022-08-21T11:20:05;29.80;99.90
10149;DHT22;5115;50.920;6.376;2022-08-21T11:22:34;29.60;99.40
10149;DHT22;5115;50.920;6.376;2022-08-21T11:25:22;29.60;99.80
10149;DHT22;5115;50.920;6.376;2022-08-21T11:28:17;29.60;99.50
10149;DHT22;5115;50.920;6.376;2022-08-21T11:31:05;29.10;99.50
10149;DHT22;5115;50.920;6.376;2022-08-21T11:34:07;29.10;99.90
10149;DHT22;5115;50.920;6.376;2022-08-21T11:36:51;29.10;99.70
10149;DHT22;5115;50.920;6.376;2022-08-21T11:39:39;28.90;99.30
10149;DHT22;5115;50.920;6.376;2022-08-21T11:42:24;29.10;99.50
10149;DHT22;5115;50.920;6.376;2022-08-21T11:47:54;29.20;99.30
10149;DHT22;5115;50.920;6.376;2022-08-21T11:50:27;29.30;99.40
10149;DHT22;5115;50.920;6.376;2022-08-21T11:55:47;29.20;98.90
10149;DHT22;5115;50.920;6.376;2022-08-21T11:58:24;29.10;98.50
10149;DHT22;5115;50.920;6.376;2022-08-21T12:00:57;29.20;98.90
10149;DHT22;5115;50.920;6.376;2022-08-21T12:03:36;28.90;99.40
10149;DHT22;5115;50.920;6.376;2022-08-21T12:06:09;28.90;99.30
10149;DHT22;5115;50.920;6.376;2022-08-21T12:08:41;28.80;99.20
10149;DHT22;5115;50.920;6.376;2022-08-21T12:16:35;28.60;99.50
10149;DHT22;5115;50.920;6.376;2022-08-21T12:19:13;28.50;99.70
10149;DHT22;5115;50.920;6.376;2022-08-21T12:22:09;28.40;99.90
10149;DHT22;5115;50.920;6.376;2022-08-21T12:24:48;28.30;99.80
10149;DHT22;5115;50.920;6.376;2022-08-21T12:28:01;28.40;99.90
10149;DHT22;5115;50.920;6.376;2022-08-21T12:30:23;28.40;99.90
10149;DHT22;5115;50.920;6.376;2022-08-21T12:32:56;28.20;99.60
10149;DHT22;5115;50.920;6.376;2022-08-21T12:35:27;28.20;99.80
10149;DHT22;5115;50.920;6.376;2022-08-21T12:38:01;28.30;99.50
10149;DHT22;5115;50.920;6.376;2022-08-21T12:40:39;28.10;99.80
10149;DHT22;5115;50.920;6.376;2022-08-21T12:43:05;28.10;99.50
10149;DHT22;5115;50.920;6.376;2022-08-21T12:45:41;27.90;99.90
10149;DHT22;5115;50.920;6.376;2022-08-21T12:48:17;28.00;99.90
10149;DHT22;5115;50.920;6.376;2022-08-21T12:50:45;27.90;99.90
10149;DHT22;5115;50.920;6.376;2022-08-21T12:56:17;27.70;99.90
10149;DHT22;5115;50.920;6.376;2022-08-21T12:58:51;27.70;99.90
10149;DHT22;5115;50.920;6.376;2022-08-21T13:01:53;27.90;99.30
10149;DHT22;5115;50.920;6.376;2022-08-21T13:04:35;27.80;99.70
10149;DHT22;5115;50.920;6.376;2022-08-21T13:07:06;27.80;99.40
10149;DHT22;5115;50.920;6.376;2022-08-21T13:09:33;27.90;99.50
10149;DHT22;5115;50.920;6.376;2022-08-21T13:11:58;27.70;99.00
10149;DHT22;5115;50.920;6.376;2022-08-21T13:14:29;27.80;99.90
10149;DHT22;5115;50.920;6.376;2022-08-21T13:16:57;27.70;99.30
10149;DHT22;5115;50.920;6.376;2022-08-21T13:19:23;27.60;99.10
10149;DHT22;5115;50.920;6.376;2022-08-21T13:21:50;27.70;99.80
10149;DHT22;5115;50.920;6.376;2022-08-21T13:24:24;27.40;98.80
10149;DHT22;5115;50.920;6.376;2022-08-21T13:26:51;27.50;98.80
10149;DHT22;5115;50.920;6.376;2022-08-21T13:29:20;27.70;98.30
10149;DHT22;5115;50.920;6.376;2022-08-21T13:31:56;27.50;98.70
10149;DHT22;5115;50.920;6.376;2022-08-21T13:34:25;27.50;98.80
10149;DHT22;5115;50.920;6.376;2022-08-21T13:36:55;27.20;98.80
10149;DHT22;5115;50.920;6.376;2022-08-21T13:39:21;26.80;99.40
10149;DHT22;5115;50.920;6.376;2022-08-21T13:41:51;26.80;99.90
10149;DHT22;5115;50.920;6.376;2022-08-21T13:44:22;26.90;99.90
10149;DHT22;5115;50.920;6.376;2022-08-21T13:46:52;26.70;99.90
10149;DHT22;5115;50.920;6.376;2022-08-21T13:49:34;26.80;99.50
10149;DHT22;5115;50.920;6.376;2022-08-21T13:52:00;26.90;99.90
10149;DHT22;5115;50.920;6.376;2022-08-21T13:56:59;26.80;99.90
10149;DHT22;5115;50.920;6.376;2022-08-21T13:59:32;26.70;99.90
10149;DHT22;5115;50.920;6.376;2022-08-21T14:02:20;26.60;99.90
10149;DHT22;5115;50.920;6.376;2022-08-21T14:04:54;26.60;99.90
10149;DHT22;5115;50.920;6.376;2022-08-21T14:07:31;26.70;99.90
10149;DHT22;5115;50.920;6.376;2022-08-21T14:10:03;26.60;99.90
10149;DHT22;5115;50.920;6.376;2022-08-21T14:12:50;26.50;99.90
10149;DHT22;5115;50.920;6.376;2022-08-21T14:15:18;26.50;99.90
10149;DHT22;5115;50.920;6.376;2022-08-21T14:17:47;26.50;99.90
10149;DHT22;5115;50.920;6.376;2022-08-21T14:20:31;26.40;99.90
10149;DHT22;5115;50.920;6.376;2022-08-21T14:22:58;26.50;99.90
10149;DHT22;5115;50.920;6.376;2022-08-21T14:27:53;26.40;99.90
10149;DHT22;5115;50.920;6.376;2022-08-21T14:30:21;26.50;99.90
10149;DHT22;5115;50.920;6.376;2022-08-21T14:32:47;26.10;99.90
10149;DHT22;5115;50.920;6.376;2022-08-21T14:35:14;26.30;99.90
10149;DHT22;5115;50.920;6.376;2022-08-21T14:37:43;26.10;99.90
10149;DHT22;5115;50.920;6.376;2022-08-21T14:40:10;26.60;99.90
10149;DHT22;5115;50.920;6.376;2022-08-21T14:42:37;26.40;99.90
10149;DHT22;5115;50.920;6.376;2022-08-21T14:45:12;26.30;99.90
10149;DHT22;5115;50.920;6.376;2022-08-21T14:47:38;26.30;99.90
10149;DHT22;5115;50.920;6.376;2022-08-21T14:50:04;26.20;99.90
10149;DHT22;5115;50.920;6.376;2022-08-21T14:52:30;26.10;99.70
10149;DHT22;5115;50.920;6.376;2022-08-21T14:54:55;26.30;99.40
10149;DHT22;5115;50.920;6.376;2022-08-21T14:57:21;26.20;98.80
10149;DHT22;5115;50.920;6.376;2022-08-21T14:59:47;26.20;98.60
10149;DHT22;5115;50.920;6.376;2022-08-21T15:02:13;26.70;98.10
10149;DHT22;5115;50.920;6.376;2022-08-21T15:04:39;26.60;98.00
10149;DHT22;5115;50.920;6.376;2022-08-21T15:07:04;27.00;98.40
10149;DHT22;5115;50.920;6.376;2022-08-21T15:09:30;26.80;98.20
10149;DHT22;5115;50.920;6.376;2022-08-21T15:11:57;26.80;98.30
10149;DHT22;5115;50.920;6.376;2022-08-21T15:14:27;27.30;98.20
10149;DHT22;5115;50.920;6.376;2022-08-21T15:16:53;27.10;98.50
10149;DHT22;5115;50.920;6.376;2022-08-21T15:19:19;27.00;98.70
10149;DHT22;5115;50.920;6.376;2022-08-21T15:21:45;26.80;98.80
10149;DHT22;5115;50.920;6.376;2022-08-21T15:24:10;26.80;98.90
10149;DHT22;5115;50.920;6.376;2022-08-21T15:26:36;27.20;99.10
10149;DHT22;5115;50.920;6.376;2022-08-21T15:29:02;27.10;99.40
10149;DHT22;5115;50.920;6.376;2022-08-21T15:31:28;27.00;98.70
10149;DHT22;5115;50.920;6.376;2022-08-21T15:33:54;27.10;98.10
10149;DHT22;5115;50.920;6.376;2022-08-21T15:36:20;27.10;98.70
10149;DHT22;5115;50.920;6.376;2022-08-21T15:38:46;27.10;99.00
10149;DHT22;5115;50.920;6.376;2022-08-21T15:41:11;27.10;99.00
10149;DHT22;5115;50.920;6.376;2022-08-21T15:43:48;27.20;99.30
10149;DHT22;5115;50.920;6.376;2022-08-21T15:46:16;27.00;99.90
10149;DHT22;5115;50.920;6.376;2022-08-21T15:48:42;26.90;99.90
10149;DHT22;5115;50.920;6.376;2022-08-21T15:51:09;26.80;99.90
10149;DHT22;5115;50.920;6.376;2022-08-21T15:53:35;26.80;99.90
10149;DHT22;5115;50.920;6.376;2022-08-21T15:56:04;26.80;99.90
10149;DHT22;5115;50.920;6.376;2022-08-21T15:58:30;26.60;99.80
10149;DHT22;5115;50.920;6.376;2022-08-21T16:00:59;26.60;99.90
10149;DHT22;5115;50.920;6.376;2022-08-21T16:03:25;26.80;99.90
10149;DHT22;5115;50.920;6.376;2022-08-21T16:05:51;26.60;99.90
10149;DHT22;5115;50.920;6.376;2022-08-21T16:08:19;26.50;99.90
10149;DHT22;5115;50.920;6.376;2022-08-21T16:10:45;26.50;99.90
10149;DHT22;5115;50.920;6.376;2022-08-21T16:13:31;26.50;99.90
10149;DHT22;5115;50.920;6.376;2022-08-21T16:16:00;27.00;99.90
10149;DHT22;5115;50.920;6.376;2022-08-21T16:18:26;26.40;99.90
10149;DHT22;5115;50.920;6.376;2022-08-21T16:20:52;26.40;99.90
10149;DHT22;5115;50.920;6.376;2022-08-21T16:23:17;26.30;99.90
10149;DHT22;5115;50.920;6.376;2022-08-21T16:25:43;26.10;99.90
10149;DHT22;5115;50.920;6.376;2022-08-21T16:28:13;26.30;99.90
10149;DHT22;5115;50.920;6.376;2022-08-21T16:30:39;26.20;99.90
10149;DHT22;5115;50.920;6.376;2022-08-21T16:33:07;26.20;99.90
10149;DHT22;5115;50.920;6.376;2022-08-21T16:35:39;26.20;99.90
10149;DHT22;5115;50.920;6.376;2022-08-21T16:38:05;25.90;99.90
10149;DHT22;5115;50.920;6.376;2022-08-21T16:40:31;25.90;99.90
10149;DHT22;5115;50.920;6.376;2022-08-21T16:42:56;25.90;99.90
10149;DHT22;5115;50.920;6.376;2022-08-21T16:45:22;25.90;99.90
10149;DHT22;5115;50.920;6.376;2022-08-21T16:47:48;26.00;99.90
10149;DHT22;5115;50.920;6.376;2022-08-21T16:50:18;25.90;99.90
10149;DHT22;5115;50.920;6.376;2022-08-21T16:52:44;25.80;99.90